createdAt,value
2017-05-11T00:00:23.693Z,9.32
2017-05-11T00:02:52.028Z,10.35
2017-05-11T00:05:21.074Z,9.47
2017-05-11T00:07:49.412Z,9.07
2017-05-11T00:10:17.736Z,10.70
2017-05-11T00:12:46.108Z,8.95
2017-05-11T00:15:14.391Z,9.50
2017-05-11T00:17:42.731Z,9.30
2017-05-11T00:20:11.041Z,9.97
2017-05-11T00:22:39.385Z,9.52
2017-05-11T00:25:07.754Z,9.37
2017-05-11T00:27:36.159Z,8.85
2017-05-11T00:30:04.474Z,7.85
2017-05-11T00:32:33.855Z,8.00
2017-05-11T00:35:02.188Z,9.05
2017-05-11T00:37:30.506Z,8.70
2017-05-11T00:39:58.901Z,8.53
2017-05-11T00:42:27.215Z,7.53
2017-05-11T00:44:56.264Z,7.73
2017-05-11T00:47:24.593Z,9.60
2017-05-11T00:49:52.913Z,8.10
2017-05-11T00:52:21.230Z,9.00
2017-05-11T00:54:50.539Z,8.12
2017-05-11T00:57:19.964Z,8.55
2017-05-11T00:59:48.374Z,8.43
2017-05-11T01:02:16.706Z,9.77
2017-05-11T01:04:45.054Z,8.35
2017-05-11T01:07:14.303Z,9.17
2017-05-11T01:09:42.621Z,8.88
2017-05-11T01:12:10.957Z,8.43
2017-05-11T01:14:39.274Z,9.98
2017-05-11T01:17:07.636Z,10.03
2017-05-11T01:19:36.005Z,8.27
2017-05-11T01:22:04.330Z,8.70
2017-05-11T01:24:32.675Z,9.23
2017-05-11T01:27:01.066Z,9.47
2017-05-11T01:29:29.443Z,9.38
2017-05-11T01:31:57.777Z,9.53
2017-05-11T01:34:26.129Z,10.30
2017-05-11T01:36:55.276Z,9.18
2017-05-11T01:39:23.685Z,9.35
2017-05-11T01:41:52.787Z,8.82
2017-05-11T01:44:22.002Z,11.20
2017-05-11T01:46:51.094Z,10.02
2017-05-11T01:49:19.437Z,10.00
2017-05-11T01:51:47.826Z,10.07
2017-05-11T01:54:16.151Z,9.08
2017-05-11T01:56:44.526Z,8.57
2017-05-11T01:59:12.957Z,9.38
2017-05-11T02:01:41.354Z,8.28
2017-05-11T02:04:09.751Z,9.77
2017-05-11T02:06:38.196Z,9.62
2017-05-11T02:09:06.519Z,8.67
2017-05-11T02:11:34.941Z,8.80
2017-05-11T02:14:04.151Z,8.53
2017-05-11T02:16:32.757Z,8.98
2017-05-11T02:19:01.135Z,10.37
2017-05-11T02:21:30.266Z,8.57
2017-05-11T02:23:58.649Z,8.77
2017-05-11T02:26:27.001Z,8.45
2017-05-11T02:28:55.621Z,7.42
2017-05-11T02:31:23.980Z,9.27
2017-05-11T02:33:52.372Z,8.00
2017-05-11T02:36:21.293Z,8.62
2017-05-11T02:38:49.676Z,8.53
2017-05-11T02:41:17.999Z,8.25
2017-05-11T02:43:46.482Z,8.83
2017-05-11T02:46:14.825Z,8.87
2017-05-11T02:48:43.500Z,7.43
2017-05-11T02:51:12.531Z,8.50
2017-05-11T02:53:40.841Z,8.85
2017-05-11T02:56:09.237Z,9.55
2017-05-11T02:58:37.581Z,7.82
2017-05-11T03:01:05.920Z,8.97
2017-05-11T03:03:35.037Z,8.67
2017-05-11T03:06:03.374Z,8.02
2017-05-11T03:08:31.933Z,8.03
2017-05-11T03:11:00.374Z,10.98
2017-05-11T03:13:29.424Z,8.98
2017-05-11T03:15:58.109Z,8.97
2017-05-11T03:18:26.495Z,9.48
2017-05-11T03:20:54.913Z,7.78
2017-05-11T03:23:23.226Z,8.12
2017-05-11T03:25:51.577Z,9.10
2017-05-11T03:28:19.954Z,9.00
2017-05-11T03:30:48.310Z,9.35
2017-05-11T03:33:17.354Z,9.38
2017-05-11T03:35:45.914Z,8.30
2017-05-11T03:38:14.373Z,8.43
2017-05-11T03:40:43.423Z,7.92
2017-05-11T03:43:11.803Z,10.17
2017-05-11T03:45:40.131Z,8.80
2017-05-11T03:48:09.193Z,7.77
2017-05-11T03:50:37.516Z,9.92
2017-05-11T03:53:05.856Z,8.90
2017-05-11T03:55:34.470Z,11.40
2017-05-11T03:58:03.568Z,9.28
2017-05-11T04:00:32.602Z,9.48
2017-05-11T04:03:00.929Z,9.78
2017-05-11T04:05:29.997Z,8.45
2017-05-11T04:07:58.450Z,9.08
2017-05-11T04:10:26.785Z,10.02
2017-05-11T04:12:55.922Z,8.90
2017-05-11T04:15:24.244Z,10.13
2017-05-11T04:17:53.309Z,9.78
2017-05-11T04:20:21.641Z,9.80
2017-05-11T04:22:49.956Z,9.80
2017-05-11T04:25:18.276Z,10.43
2017-05-11T04:27:46.910Z,11.92
2017-05-11T04:30:15.385Z,10.53
2017-05-11T04:32:44.568Z,11.47
2017-05-11T04:35:12.956Z,10.17
2017-05-11T04:37:41.273Z,10.67
2017-05-11T04:40:09.653Z,10.60
2017-05-11T04:42:38.051Z,11.30
2017-05-11T04:45:07.940Z,11.60
2017-05-11T04:47:38.525Z,11.17
2017-05-11T04:50:06.973Z,11.62
2017-05-11T04:52:35.517Z,12.10
2017-05-11T04:55:03.938Z,11.80
2017-05-11T05:00:07.075Z,10.87
2017-05-11T05:02:37.201Z,11.62
2017-05-11T05:05:06.244Z,12.72
2017-05-11T05:10:09.193Z,11.87
2017-05-11T05:12:39.451Z,11.85
2017-05-11T05:15:07.909Z,12.98
2017-05-11T05:17:36.610Z,12.37
2017-05-11T05:20:04.986Z,14.18
2017-05-11T05:22:39.221Z,15.37
2017-05-11T05:25:13.793Z,12.30
2017-05-11T05:27:43.715Z,12.63
2017-05-11T05:30:13.049Z,18.73
2017-05-11T05:32:42.285Z,19.17
2017-05-11T05:35:16.912Z,22.90
2017-05-11T05:37:45.516Z,16.13
2017-05-11T05:40:14.067Z,14.45
2017-05-11T05:42:42.447Z,12.80
2017-05-11T05:45:11.562Z,13.32
2017-05-11T05:47:39.867Z,13.17
2017-05-11T05:50:08.335Z,12.25
2017-05-11T05:52:36.775Z,13.23
2017-05-11T05:55:06.191Z,11.13
2017-05-11T05:57:35.386Z,13.67
2017-05-11T06:00:04.724Z,13.72
2017-05-11T06:02:33.156Z,16.43
2017-05-11T06:05:01.508Z,12.80
2017-05-11T06:07:29.927Z,13.48
2017-05-11T06:09:59.042Z,13.12
2017-05-11T06:12:27.366Z,12.87
2017-05-11T06:14:55.758Z,13.30
2017-05-11T06:17:24.081Z,14.77
2017-05-11T06:19:53.454Z,13.65
2017-05-11T06:22:22.207Z,12.78
2017-05-11T06:24:50.727Z,19.32
2017-05-11T06:27:19.867Z,15.13
2017-05-11T06:29:48.289Z,15.58
2017-05-11T06:32:16.708Z,13.30
2017-05-11T06:34:46.082Z,12.65
2017-05-11T06:37:14.650Z,10.23
2017-05-11T06:39:43.777Z,10.75
2017-05-11T06:42:12.859Z,13.32
2017-05-11T06:44:45.652Z,11.55
2017-05-11T06:47:14.848Z,10.90
2017-05-11T06:49:43.970Z,10.80
2017-05-11T06:52:12.376Z,10.38
2017-05-11T06:54:40.954Z,9.38
2017-05-11T06:57:09.387Z,8.43
2017-05-11T06:59:38.511Z,8.02
2017-05-11T07:02:06.990Z,8.02
2017-05-11T07:04:36.593Z,8.52
2017-05-11T07:07:04.947Z,9.03
2017-05-11T07:09:34.018Z,8.48
2017-05-11T07:12:02.492Z,6.68
2017-05-11T07:14:31.817Z,7.23
2017-05-11T07:17:00.933Z,7.73
2017-05-11T07:19:30.417Z,6.40
2017-05-11T07:22:03.530Z,7.18
2017-05-11T07:24:31.885Z,6.93
2017-05-11T07:27:00.974Z,7.52
2017-05-11T07:29:30.123Z,7.75
2017-05-11T07:31:58.524Z,6.42
2017-05-11T07:34:26.866Z,7.08
2017-05-11T07:36:55.310Z,7.22
2017-05-11T07:39:24.548Z,5.88
2017-05-11T07:41:54.964Z,6.82
2017-05-11T07:44:24.358Z,5.83
2017-05-11T07:46:53.441Z,6.10
2017-05-11T07:49:25.135Z,6.67
2017-05-11T07:51:54.560Z,5.83
2017-05-11T07:54:23.049Z,7.75
2017-05-11T07:56:52.239Z,5.93
2017-05-11T07:59:22.057Z,6.82
2017-05-11T08:01:52.281Z,6.68
2017-05-11T08:04:20.760Z,6.28
2017-05-11T08:06:50.652Z,6.33
2017-05-11T08:09:20.788Z,6.87
2017-05-11T08:11:55.868Z,6.75
2017-05-11T08:14:25.807Z,6.02
2017-05-11T08:16:54.352Z,5.67
2017-05-11T08:19:23.107Z,6.33
2017-05-11T08:21:52.910Z,7.00
2017-05-11T08:24:22.935Z,6.22
2017-05-11T08:26:51.412Z,7.40
2017-05-11T08:29:23.500Z,6.70
2017-05-11T08:31:52.076Z,6.82
2017-05-11T08:34:22.324Z,8.20
2017-05-11T08:36:50.968Z,6.48
2017-05-11T08:42:06.614Z,7.32
2017-05-11T08:44:36.454Z,7.32
2017-05-11T08:47:05.640Z,7.48
2017-05-11T08:49:34.257Z,8.45
2017-05-11T08:52:02.636Z,7.48
2017-05-11T08:54:30.957Z,7.58
2017-05-11T08:56:59.416Z,8.50
2017-05-11T08:59:29.435Z,7.48
2017-05-11T09:01:58.481Z,9.00
2017-05-11T09:04:26.826Z,7.77
2017-05-11T09:06:55.287Z,13.12
2017-05-11T09:12:06.686Z,8.00
2017-05-11T09:14:35.056Z,8.52
2017-05-11T09:17:03.522Z,9.25
2017-05-11T09:19:31.922Z,8.60
2017-05-11T09:22:01.980Z,8.52
2017-05-11T09:24:31.214Z,9.40
2017-05-11T09:27:01.518Z,9.10
2017-05-11T09:29:40.777Z,8.10
2017-05-11T09:32:13.159Z,9.15
2017-05-11T09:34:42.681Z,8.22
2017-05-11T09:37:11.061Z,9.77
2017-05-11T09:39:39.481Z,9.47
2017-05-11T09:42:07.865Z,10.40
2017-05-11T09:44:37.993Z,9.82
2017-05-11T09:47:13.135Z,7.80
2017-05-11T09:49:41.497Z,9.35
2017-05-11T09:52:13.020Z,10.55
2017-05-11T09:54:41.508Z,10.35
2017-05-11T09:59:51.339Z,8.52
2017-05-11T10:02:19.672Z,8.77
2017-05-11T10:04:51.121Z,9.65
2017-05-11T10:07:20.295Z,8.98
2017-05-11T10:09:50.031Z,9.73
2017-05-11T10:12:18.527Z,8.60
2017-05-11T10:14:46.983Z,8.90
2017-05-11T10:17:15.479Z,9.47
2017-05-11T10:19:44.769Z,10.07
2017-05-11T10:22:13.170Z,8.60
2017-05-11T10:24:42.281Z,9.87
2017-05-11T10:27:10.678Z,7.88
2017-05-11T10:29:39.106Z,8.67
2017-05-11T10:32:07.671Z,8.90
2017-05-11T10:34:36.765Z,7.93
2017-05-11T10:37:05.925Z,7.48
2017-05-11T10:39:35.212Z,10.30
2017-05-11T10:42:06.834Z,8.05
2017-05-11T10:44:47.172Z,8.88
2017-05-11T10:47:21.959Z,12.03
2017-05-11T10:49:57.932Z,9.13
2017-05-11T10:52:27.130Z,8.65
2017-05-11T10:54:58.431Z,9.48
2017-05-11T10:57:28.685Z,7.78
2017-05-11T11:16:16.571Z,9.42
2017-05-11T11:18:45.977Z,9.24
2017-05-11T11:21:15.055Z,8.92
2017-05-11T11:23:43.535Z,7.04
2017-05-11T11:26:12.055Z,8.06
2017-05-11T11:28:40.402Z,8.04
2017-05-11T11:31:08.792Z,9.60
2017-05-11T11:33:38.225Z,9.62
2017-05-11T11:36:06.652Z,8.62
2017-05-11T11:38:35.002Z,8.20
2017-05-11T11:41:03.333Z,9.08
2017-05-11T11:43:31.663Z,8.84
2017-05-11T11:46:00.004Z,7.80
2017-05-11T11:48:29.127Z,9.54
2017-05-11T11:50:57.507Z,7.80
2017-05-11T11:53:25.980Z,8.60
2017-05-11T11:55:54.311Z,7.70
2017-05-11T11:58:23.591Z,7.42
2017-05-11T12:00:51.912Z,7.52
2017-05-11T12:03:20.330Z,10.12
2017-05-11T12:05:49.424Z,8.04
2017-05-11T12:08:17.840Z,8.10
2017-05-11T12:10:46.287Z,7.52
2017-05-11T12:13:14.609Z,8.66
2017-05-11T12:15:43.744Z,8.08
2017-05-11T12:18:12.084Z,8.20
2017-05-11T12:20:40.417Z,8.04
2017-05-11T12:23:08.975Z,7.40
2017-05-11T12:25:37.432Z,7.00
2017-05-11T12:28:06.518Z,6.52
2017-05-11T12:30:35.645Z,5.84
2017-05-11T12:33:04.048Z,6.70
2017-05-11T12:35:32.891Z,6.64
2017-05-11T12:38:02.116Z,6.02
2017-05-11T12:40:31.221Z,7.40
2017-05-11T12:42:59.655Z,6.10
2017-05-11T12:45:28.897Z,7.14
2017-05-11T12:47:57.258Z,7.24
2017-05-11T12:50:26.567Z,9.10
2017-05-11T12:52:55.472Z,11.42
2017-05-11T12:55:24.869Z,17.98
2017-05-11T12:57:53.355Z,6.60
2017-05-11T13:00:21.873Z,5.78
2017-05-11T13:02:50.290Z,6.94
2017-05-11T13:05:18.746Z,6.74
2017-05-11T13:07:47.318Z,5.92
2017-05-11T13:10:15.870Z,7.84
2017-05-11T13:12:44.299Z,7.92
2017-05-11T13:15:13.550Z,6.78
2017-05-11T13:17:42.047Z,7.35
2017-05-11T13:20:11.276Z,6.67
2017-05-11T13:22:41.205Z,8.18
2017-05-11T13:25:10.327Z,9.52
2017-05-11T13:27:39.406Z,9.38
2017-05-11T13:30:08.420Z,8.32
2017-05-11T13:32:36.858Z,7.40
2017-05-11T13:35:06.404Z,8.58
2017-05-11T13:37:36.280Z,7.90
2017-05-11T13:40:05.910Z,9.47
2017-05-11T13:42:35.086Z,8.67
2017-05-11T13:45:04.216Z,9.78
2017-05-11T13:47:32.568Z,9.07
2017-05-11T13:50:01.767Z,8.27
2017-05-11T13:52:30.848Z,6.68
2017-05-11T13:54:59.946Z,8.17
2017-05-11T13:57:28.313Z,7.43
2017-05-11T13:59:56.630Z,8.22
2017-05-11T14:02:25.035Z,8.13
2017-05-11T14:04:53.397Z,7.80
2017-05-11T14:07:21.745Z,7.82
2017-05-11T14:09:50.117Z,8.73
2017-05-11T14:12:18.526Z,6.52
2017-05-11T14:14:48.928Z,8.77
2017-05-11T14:17:18.118Z,10.23
2017-05-11T14:19:47.276Z,7.42
2017-05-11T14:22:15.629Z,7.45
2017-05-11T14:24:44.034Z,6.63
2017-05-11T14:27:13.093Z,6.63
2017-05-11T14:29:43.106Z,7.02
2017-05-11T14:32:11.437Z,6.32
2017-05-11T14:34:41.694Z,7.27
2017-05-11T14:37:10.846Z,6.67
2017-05-11T14:39:39.217Z,5.63
2017-05-11T14:42:07.677Z,6.32
2017-05-11T14:44:37.285Z,6.42
2017-05-11T14:47:08.128Z,6.65
2017-05-11T14:49:39.391Z,6.70
2017-05-11T14:52:08.515Z,6.03
2017-05-11T14:54:38.389Z,6.78
2017-05-11T14:57:07.771Z,6.18
2017-05-11T14:59:36.793Z,5.97
2017-05-11T15:02:05.189Z,5.48
2017-05-11T15:04:33.598Z,5.57
2017-05-11T15:07:02.276Z,5.95
2017-05-11T15:09:31.040Z,8.72
2017-05-11T15:11:59.700Z,6.43
2017-05-11T15:14:30.848Z,6.13
2017-05-11T15:17:00.074Z,4.83
2017-05-11T15:19:28.401Z,4.47
2017-05-11T15:21:57.776Z,5.43
2017-05-11T15:27:04.969Z,4.25
2017-05-11T15:29:34.199Z,5.78
2017-05-11T15:32:04.232Z,5.00
2017-05-11T15:34:33.288Z,5.93
2017-05-11T15:37:01.614Z,4.90
2017-05-11T15:39:30.936Z,5.92
2017-05-11T15:42:00.472Z,5.30
2017-05-11T15:44:29.842Z,6.12
2017-05-11T15:46:59.995Z,6.08
2017-05-11T15:49:30.607Z,5.12
2017-05-11T15:51:59.083Z,4.85
2017-05-11T15:54:29.082Z,6.70
2017-05-11T15:56:57.462Z,5.23
2017-05-11T15:59:27.414Z,5.50
2017-05-11T16:01:55.763Z,4.35
2017-05-11T16:04:26.100Z,5.57
2017-05-11T16:06:54.784Z,4.45
2017-05-11T16:09:24.137Z,4.52
2017-05-11T16:11:52.482Z,5.30
2017-05-11T16:14:21.577Z,6.03
2017-05-11T16:16:50.032Z,5.97
2017-05-11T16:19:20.543Z,5.28
2017-05-11T16:21:50.270Z,5.67
2017-05-11T16:24:22.485Z,4.12
2017-05-11T16:26:50.829Z,5.97
2017-05-11T16:29:19.440Z,5.35
2017-05-11T16:31:48.526Z,4.92
2017-05-11T16:34:18.518Z,4.88
2017-05-11T16:36:47.180Z,5.33
2017-05-11T16:39:16.330Z,5.45
2017-05-11T16:41:45.466Z,4.97
2017-05-11T16:44:14.017Z,6.25
2017-05-11T16:46:42.377Z,5.28
2017-05-11T16:49:10.743Z,5.37
2017-05-11T16:51:39.135Z,4.50
2017-05-11T16:54:08.254Z,5.62
2017-05-11T16:56:37.733Z,6.38
2017-05-11T16:59:06.127Z,4.92
2017-05-11T17:01:38.713Z,5.30
2017-05-11T17:04:07.799Z,5.52
2017-05-11T17:06:36.987Z,7.67
2017-05-11T17:09:06.166Z,6.22
2017-05-11T17:11:35.165Z,6.75
2017-05-11T17:14:06.332Z,6.65
2017-05-11T17:16:37.298Z,5.70
2017-05-11T17:19:05.647Z,6.27
2017-05-11T17:21:34.861Z,5.33
2017-05-11T17:24:04.281Z,6.62
2017-05-11T17:26:34.298Z,6.30
2017-05-11T17:29:03.639Z,6.88
2017-05-11T17:31:32.107Z,9.30
2017-05-11T17:34:00.540Z,6.35
2017-05-11T17:36:31.704Z,7.08
2017-05-11T17:39:00.090Z,6.70
2017-05-11T17:41:28.561Z,5.48
2017-05-11T17:43:58.824Z,6.47
2017-05-11T17:46:27.160Z,6.68
2017-05-11T17:48:56.750Z,6.33
2017-05-11T17:51:29.078Z,9.83
2017-05-11T17:53:57.568Z,8.00
2017-05-11T17:56:26.014Z,7.12
2017-05-11T17:58:54.419Z,7.03
2017-05-11T18:01:22.843Z,7.52
2017-05-11T18:03:51.975Z,7.05
2017-05-11T18:06:21.551Z,6.77
2017-05-11T18:08:51.371Z,6.88
2017-05-11T18:11:20.893Z,7.45
2017-05-11T18:13:53.061Z,8.03
2017-05-11T18:16:21.601Z,8.53
2017-05-11T18:40:26.968Z,8.07
2017-05-11T18:42:55.496Z,8.60
2017-05-11T18:45:25.563Z,10.30
2017-05-11T18:48:08.419Z,8.23
2017-05-11T18:50:36.944Z,7.88
2017-05-11T18:53:06.443Z,8.58
2017-05-11T18:55:35.749Z,7.95
2017-05-11T18:58:05.757Z,7.35
2017-05-11T19:00:35.059Z,7.38
2017-05-11T19:05:53.088Z,8.43
2017-05-11T19:08:29.414Z,6.60
2017-05-11T19:10:59.418Z,7.07
2017-05-11T19:13:27.962Z,6.63
2017-05-11T19:21:45.309Z,6.90
2017-05-11T19:30:25.904Z,6.78
2017-05-11T19:32:57.238Z,6.88
2017-05-11T19:35:28.974Z,8.33
2017-05-11T19:38:19.388Z,9.37
2017-05-11T19:40:57.535Z,9.17
2017-05-11T19:43:26.093Z,8.62
2017-05-11T19:45:55.283Z,8.42
2017-05-11T19:48:27.830Z,8.82
2017-05-11T19:50:58.970Z,7.93
2017-05-11T19:53:27.382Z,7.13
2017-05-11T19:55:56.384Z,8.28
2017-05-11T19:58:25.615Z,9.95
2017-05-11T20:00:55.385Z,9.58
2017-05-11T20:03:24.759Z,15.00
2017-05-11T20:06:05.684Z,8.87
2017-05-11T20:08:34.752Z,9.47
2017-05-11T20:11:06.865Z,10.03
2017-05-11T20:13:38.111Z,20.67
2017-05-11T20:16:07.045Z,10.83
2017-05-11T20:18:35.524Z,10.28
2017-05-11T20:21:04.866Z,9.63
2017-05-11T20:23:34.442Z,12.00
2017-05-11T20:28:43.505Z,10.67
2017-05-11T20:31:14.150Z,10.83
2017-05-11T20:33:42.643Z,9.93
2017-05-11T20:36:12.215Z,10.03
2017-05-11T20:38:40.773Z,11.30
2017-05-11T20:41:10.235Z,10.57
2017-05-11T20:43:40.890Z,12.82
2017-05-11T20:46:11.032Z,11.98
2017-05-11T20:48:39.853Z,12.03
2017-05-11T20:51:11.145Z,10.92
2017-05-11T20:53:43.996Z,11.57
2017-05-11T20:56:14.351Z,10.80
2017-05-11T20:58:51.709Z,13.38
2017-05-11T21:01:21.035Z,11.23
2017-05-11T21:03:49.476Z,13.10
2017-05-11T21:06:20.339Z,11.70
2017-05-11T21:08:49.555Z,11.58
2017-05-11T21:11:17.968Z,12.30
2017-05-11T21:13:47.049Z,11.72
2017-05-11T21:16:15.707Z,14.57
2017-05-11T21:18:48.065Z,11.05
2017-05-11T21:21:20.890Z,11.90
2017-05-11T21:23:50.044Z,12.05
2017-05-11T21:26:18.497Z,13.47
2017-05-11T21:28:48.328Z,11.50
2017-05-11T21:31:16.866Z,13.22
2017-05-11T21:33:48.992Z,12.77
2017-05-11T21:36:18.438Z,12.60
2017-05-11T21:38:47.117Z,12.23
2017-05-11T21:43:54.638Z,12.68
2017-05-11T21:46:23.030Z,11.33
2017-05-11T21:48:51.421Z,11.42
2017-05-11T21:51:20.610Z,12.60
2017-05-11T21:53:49.715Z,18.95
2017-05-11T21:56:18.849Z,17.12
2017-05-11T21:58:47.311Z,14.05
2017-05-11T22:06:46.381Z,13.33
2017-05-11T22:09:22.769Z,14.57
2017-05-11T22:11:51.883Z,12.78
2017-05-11T22:14:24.172Z,13.07
2017-05-11T22:16:55.390Z,15.53
2017-05-11T22:19:28.722Z,13.20
2017-05-11T22:21:57.820Z,18.42
2017-05-11T22:24:26.198Z,14.83
2017-05-11T22:26:54.565Z,15.47
2017-05-11T22:29:26.295Z,18.40
2017-05-11T22:32:03.041Z,16.85
2017-05-11T22:34:31.483Z,16.53
2017-05-11T22:37:03.497Z,16.55
2017-05-11T22:39:35.836Z,16.18
2017-05-11T22:42:06.887Z,14.67
2017-05-11T22:44:35.678Z,16.13
2017-05-11T22:47:04.280Z,15.03
2017-05-11T22:49:32.697Z,16.63
2017-05-11T22:52:01.553Z,17.40
2017-05-11T22:54:30.029Z,15.63
2017-05-11T22:56:58.376Z,17.48
2017-05-11T22:59:26.795Z,18.23
2017-05-11T23:01:55.146Z,16.58
2017-05-11T23:04:23.480Z,18.67
2017-05-11T23:06:51.950Z,17.40
2017-05-11T23:09:21.119Z,17.58
2017-05-11T23:11:49.501Z,18.03
2017-05-11T23:14:18.885Z,17.88
2017-05-11T23:16:47.225Z,17.93
2017-05-11T23:19:15.775Z,18.93
2017-05-11T23:21:44.391Z,17.78
2017-05-11T23:24:13.424Z,17.77
2017-05-11T23:26:41.786Z,18.65
2017-05-11T23:29:10.137Z,18.87
2017-05-11T23:31:39.682Z,18.25
2017-05-11T23:34:10.139Z,18.98
2017-05-11T23:36:39.567Z,17.47
2017-05-11T23:39:08.736Z,19.83
2017-05-11T23:41:37.209Z,17.93
2017-05-11T23:44:05.663Z,17.98
2017-05-11T23:49:12.784Z,18.75
2017-05-11T23:51:41.195Z,18.28
2017-05-11T23:54:11.172Z,20.92
2017-05-11T23:56:39.522Z,19.62
2017-05-11T23:59:08.584Z,18.62
